Spragge, Canada
Current Conditions -  °F | °C
As of 1:26 AM on Tuesday 21 Oct 2014 (Local Time) from CYZE Reporting Station
Overcast Overcast  
Wind Chill: 36°   Ceiling: 2000
Heat Index: 43°   Visibility: 9mi
Dew Point: 39°   Wind: 14mph
Humidity: 87%   Direction: 30°NNE
Pressure: 29.92"   Gusts: 29mph
Location:  46.21°N, 82.66°W
Report Text: CYZE 210526Z AUTO 03012G25KT 9SM OVC020 06/04 A2992 RMK SLP137
Loading
Personal Weather Stations






























Interactive Weather Map
Tropical Storm Tracking
New forecast layout! Learn more

10-Day Weather Forecast

Advertisements
Track Severe Weather on mobile